Time;durP1;ratioP1;P1;durP2;ratioP2;P2;SDS_P1;SDS_P2;PMS_P1;PMS_P2;Temp;Humidity;BMP_temperature;BMP_pressure;BME280_temperature;BME280_humidity;BME280_pressure;Samples;Min_cycle;Max_cycle;Signal;HPM_P1;HPM_P2
2023/07/14 00:01:55;;;;;;;4.00;1.00;;;16.70;99.90;;;15.82;100.00;97955.38;5046089;28;20045;-69
2023/07/14 00:04:33;;;;;;;3.03;1.00;;;16.60;99.90;;;15.75;100.00;97958.44;5045795;28;20057;-70
2023/07/14 00:07:03;;;;;;;3.63;1.23;;;16.50;99.90;;;15.66;100.00;97970.25;5044112;28;20524;-70
2023/07/14 00:09:32;;;;;;;4.22;1.00;;;16.40;99.90;;;15.53;100.00;97961.38;5044152;28;20136;-71
2023/07/14 00:12:00;;;;;;;3.80;0.88;;;16.40;99.90;;;15.56;100.00;97964.69;5045022;28;20383;-70
2023/07/14 00:14:28;;;;;;;5.18;1.40;;;16.40;99.90;;;15.50;100.00;97964.19;5040752;28;20041;-71
2023/07/14 00:16:56;;;;;;;3.97;0.90;;;16.30;99.90;;;15.46;100.00;97969.59;5041591;28;20042;-70
2023/07/14 00:19:25;;;;;;;5.50;1.20;;;16.40;99.90;;;15.51;100.00;97955.41;5039767;28;20045;-71
2023/07/14 00:21:53;;;;;;;4.93;1.00;;;16.40;99.90;;;15.47;100.00;97958.19;5044904;28;20055;-71
2023/07/14 00:24:21;;;;;;;5.38;0.70;;;;;;;15.57;100.00;97958.50;5043921;28;20525;-71
2023/07/14 00:26:56;;;;;;;5.00;0.90;;;16.40;99.90;;;15.63;100.00;97946.88;5042605;28;20053;-71
2023/07/14 00:29:37;;;;;;;5.78;0.90;;;16.40;99.90;;;15.63;100.00;97941.63;5041819;28;20045;-71
2023/07/14 00:32:24;;;;;;;4.60;1.02;;;16.40;99.90;;;15.58;100.00;97943.69;5041137;28;20418;-71
2023/07/14 00:34:52;;;;;;;3.85;0.90;;;16.40;99.90;;;15.42;100.00;97943.72;5034636;28;20045;-71
2023/07/14 00:37:19;;;;;;;3.95;1.10;;;16.20;99.90;;;15.29;100.00;97946.16;5046868;28;20137;-71
2023/07/14 00:39:46;;;;;;;4.85;1.00;;;16.10;99.90;;;15.23;100.00;97946.50;5045882;28;20087;-71
2023/07/14 00:42:16;;;;;;;4.50;0.70;;;16.00;99.90;;;15.09;100.00;97947.25;5046407;28;20045;-71
2023/07/14 00:44:45;;;;;;;2.95;1.00;;;15.90;99.90;;;15.03;100.00;97948.44;5042602;28;20099;-71
2023/07/14 00:47:27;;;;;;;5.18;1.00;;;15.90;99.90;;;15.11;100.00;97957.63;5047554;28;20049;-71
2023/07/14 00:49:56;;;;;;;2.45;0.80;;;16.00;99.90;;;15.09;100.00;97955.09;5041856;28;20060;-69
2023/07/14 00:52:32;;;;;;;4.53;1.15;;;16.00;99.90;;;15.26;100.00;97946.34;5042912;28;20141;-71
2023/07/14 00:55:00;;;;;;;3.88;1.00;;;16.10;99.90;;;15.34;100.00;97941.50;5039763;28;20048;-70
2023/07/14 00:57:29;;;;;;;4.95;1.05;;;16.20;99.90;;;15.38;100.00;97940.41;5043776;28;20798;-71
2023/07/14 01:00:05;;;;;;;3.33;0.82;;;16.20;99.90;;;15.30;100.00;97936.53;5046451;28;20059;-71
2023/07/14 01:02:32;;;;;;;1.88;0.88;;;16.30;99.90;;;15.25;100.00;97940.25;5028660;28;20134;-71
2023/07/14 01:05:04;;;;;;;2.10;0.80;;;16.20;99.90;;;15.21;100.00;97941.38;5041386;28;20060;-70
2023/07/14 01:07:37;;;;;;;2.60;0.80;;;16.20;99.90;;;15.04;100.00;97937.03;5043996;28;20077;-71
2023/07/14 01:10:08;;;;;;;4.80;1.15;;;16.10;99.90;;;15.02;100.00;97941.50;5047830;28;20501;-71
2023/07/14 01:12:40;;;;;;;3.67;1.00;;;16.00;99.90;;;15.13;100.00;97951.38;5042511;28;20417;-71
2023/07/14 01:15:08;;;;;;;3.35;0.90;;;16.00;99.90;;;15.00;100.00;97951.22;5044453;28;20511;-70
2023/07/14 01:17:37;;;;;;;5.05;0.95;;;16.00;99.90;;;15.01;100.00;97949.47;5042652;28;20505;-71
2023/07/14 01:20:08;;;;;;;4.05;0.90;;;15.90;99.90;;;14.90;100.00;97951.81;5044771;28;20076;-71
2023/07/14 01:23:13;;;;;;;2.90;1.00;;;15.90;99.90;;;14.95;100.00;97955.84;5044263;28;20047;-71
2023/07/14 01:26:36;;;;;;;2.42;1.00;;;15.90;99.90;;;14.98;100.00;97952.22;5047514;28;20063;-71
2023/07/14 01:29:08;;;;;;;3.60;0.80;;;15.70;99.90;;;15.03;100.00;97961.50;5045239;28;20053;-70
2023/07/14 01:31:35;;;;;;;2.42;0.90;;;15.80;99.90;;;15.25;100.00;97955.94;5044521;28;20055;-71
2023/07/14 01:34:03;;;;;;;2.47;0.82;;;15.90;99.90;;;15.44;100.00;97949.66;5044270;28;20055;-71
2023/07/14 01:36:30;;;;;;;3.85;0.90;;;16.10;99.90;;;15.27;100.00;97951.47;5041160;28;20134;-70
2023/07/14 01:38:57;;;;;;;5.45;0.90;;;16.20;99.90;;;15.27;100.00;97942.78;5028254;28;20077;-71
2023/07/14 01:41:24;;;;;;;4.05;0.73;;;16.20;99.90;;;15.09;100.00;97946.41;5045742;28;20055;-71
2023/07/14 01:43:53;;;;;;;3.25;0.88;;;16.20;99.90;;;15.05;100.00;97956.19;5028228;28;20450;-71
2023/07/14 01:46:22;;;;;;;2.97;0.80;;;16.10;99.90;;;15.19;100.00;97952.81;5027921;28;20053;-71
2023/07/14 01:48:58;;;;;;;6.32;1.08;;;16.10;99.90;;;15.19;100.00;97940.59;5028046;28;20052;-70
2023/07/14 01:51:30;;;;;;;4.03;0.85;;;16.10;99.90;;;15.16;100.00;97943.38;5043572;28;20056;-71
2023/07/14 01:54:13;;;;;;;4.82;0.95;;;16.10;99.90;;;15.33;100.00;97936.38;5044811;28;20124;-70
2023/07/14 01:56:42;;;;;;;2.58;0.80;;;16.20;99.90;;;15.31;100.00;97935.63;5045638;28;20061;-71
2023/07/14 01:59:22;;;;;;;2.15;0.65;;;16.20;99.90;;;15.26;100.00;97923.63;5046297;28;20098;-70
2023/07/14 02:01:52;;;;;;;3.97;1.00;;;16.20;99.90;;;15.18;100.00;97931.06;5040970;28;20053;-71
2023/07/14 02:04:30;;;;;;;3.30;1.63;;;16.10;99.90;;;14.92;100.00;97924.66;5042911;28;20076;-71
2023/07/14 02:07:01;;;;;;;3.60;0.95;;;15.80;99.90;;;14.66;100.00;97931.28;5043472;28;20154;-71
2023/07/14 02:09:31;;;;;;;6.18;1.08;;;15.70;99.90;;;14.84;100.00;97927.66;5045751;28;20124;-71
2023/07/14 02:12:06;;;;;;;3.17;1.10;;;15.70;99.90;;;14.76;100.00;97924.66;5041094;28;20049;-71
2023/07/14 02:14:45;;;;;;;4.88;1.38;;;15.70;99.90;;;14.54;100.00;97926.69;5042598;28;20060;-71
2023/07/14 02:17:33;;;;;;;4.97;1.30;;;15.60;99.90;;;14.63;100.00;97928.84;5040744;28;20044;-71
2023/07/14 02:20:06;;;;;;;3.92;1.27;;;15.40;99.90;;;14.68;100.00;97928.59;5045031;28;20064;-70
2023/07/14 02:22:35;;;;;;;4.10;1.30;;;15.30;99.90;;;14.41;100.00;97935.19;5027775;28;20528;-71
2023/07/14 02:25:07;;;;;;;6.68;1.40;;;15.20;99.90;;;14.34;100.00;97940.78;5040181;28;20567;-71
2023/07/14 02:27:34;;;;;;;6.88;1.30;;;15.10;99.90;;;14.30;100.00;97939.25;5042168;28;20138;-71
2023/07/14 02:30:12;;;;;;;4.45;1.45;;;15.10;99.90;;;14.29;100.00;97948.03;5044298;28;20136;-71
2023/07/14 02:32:47;;;;;;;4.75;1.48;;;15.00;99.90;;;14.17;100.00;97952.09;5045554;28;20049;-70
2023/07/14 02:35:30;;;;;;;5.75;1.23;;;15.00;99.90;;;14.27;100.00;97950.69;5027238;28;20053;-71
2023/07/14 02:38:05;;;;;;;3.03;1.20;;;15.00;99.90;;;14.30;100.00;97936.63;5055352;28;20044;-71
2023/07/14 02:40:45;;;;;;;6.75;1.08;;;15.20;99.90;;;14.26;100.00;97951.63;5043749;28;20092;-71
2023/07/14 02:43:16;;;;;;;4.40;1.10;;;15.20;99.90;;;14.30;100.00;97941.84;5043843;28;20099;-71
2023/07/14 02:45:56;;;;;;;1.80;0.90;;;15.10;99.90;;;14.46;100.00;97947.13;5043648;28;20645;-71
2023/07/14 02:48:35;;;;;;;5.20;1.30;;;15.10;99.90;;;14.39;100.00;97942.25;5041618;28;20199;-71
2023/07/14 02:51:03;;;;;;;4.35;1.33;;;15.00;99.90;;;14.35;100.00;97939.88;5039973;28;20080;-71
2023/07/14 02:53:30;;;;;;;5.55;1.10;;;15.00;99.90;;;14.18;100.00;97935.50;5040942;28;20053;-71
2023/07/14 02:55:57;;;;;;;3.30;1.10;;;14.90;99.90;;;14.13;100.00;97947.97;5040611;28;20059;-71
2023/07/14 02:58:24;;;;;;;4.10;1.42;;;14.90;99.90;;;14.08;100.00;97949.97;5042514;28;20049;-71
2023/07/14 03:00:52;;;;;;;4.30;1.40;;;14.80;99.90;;;14.15;100.00;97956.56;5041200;28;20055;-71
2023/07/14 03:03:19;;;;;;;3.20;1.20;;;14.80;99.90;;;14.16;100.00;97960.84;5042132;28;20109;-71
2023/07/14 03:05:46;;;;;;;5.00;1.25;;;14.80;99.90;;;14.11;100.00;97963.69;5044577;28;20052;-71
2023/07/14 03:08:16;;;;;;;4.43;1.40;;;14.80;99.90;;;14.01;100.00;97965.09;5043987;28;20037;-71
2023/07/14 03:10:47;;;;;;;4.07;1.15;;;14.70;99.90;;;13.98;100.00;97973.94;5043836;28;20153;-71
2023/07/14 03:13:16;;;;;;;3.13;1.67;;;14.80;99.90;;;14.03;100.00;97963.25;5044452;28;20051;-71
2023/07/14 03:15:44;;;;;;;3.75;1.35;;;14.90;99.90;;;14.06;100.00;97967.47;5044875;28;20639;-72
2023/07/14 03:18:11;;;;;;;3.70;1.20;;;15.00;99.90;;;14.22;100.00;97960.53;5040614;28;20052;-71
2023/07/14 03:20:38;;;;;;;1.65;1.10;;;14.90;99.90;;;14.26;100.00;97962.09;5046576;28;20068;-70
2023/07/14 03:23:06;;;;;;;6.97;1.20;;;14.90;99.90;;;14.34;100.00;97954.69;5047664;28;20143;-70
2023/07/14 03:25:34;;;;;;;1.45;0.90;;;14.90;99.90;;;14.38;100.00;97956.22;5046644;28;20143;-71
2023/07/14 03:28:03;;;;;;;6.65;0.93;;;14.90;99.90;;;14.43;100.00;97951.59;5046708;28;20049;-71
2023/07/14 03:30:42;;;;;;;3.42;1.13;;;15.00;99.90;;;14.54;100.00;97943.22;5048692;28;20129;-70
2023/07/14 03:33:09;;;;;;;6.30;1.23;;;15.10;99.90;;;14.66;100.00;97938.28;5041211;28;20465;-71
2023/07/14 03:35:36;;;;;;;2.65;1.00;;;15.20;99.90;;;14.66;100.00;97930.44;5047847;28;20127;-71
2023/07/14 03:38:03;;;;;;;1.67;0.80;;;15.30;99.90;;;14.72;100.00;97920.50;5048536;28;20060;-70
2023/07/14 03:40:30;;;;;;;3.08;1.15;;;15.30;99.90;;;14.72;100.00;97915.28;5045190;28;20134;-71
2023/07/14 03:42:58;;;;;;;2.53;0.95;;;15.30;99.90;;;14.62;100.00;97909.72;5044179;28;20550;-71
2023/07/14 03:45:25;;;;;;;5.03;1.10;;;15.30;99.90;;;14.65;100.00;97906.09;5047101;28;20045;-71
2023/07/14 03:47:52;;;;;;;3.35;1.30;;;15.30;99.90;;;14.68;100.00;97910.31;5046709;28;20049;-70
2023/07/14 03:50:19;;;;;;;2.78;1.05;;;15.30;99.90;;;14.70;100.00;97904.06;5038006;28;20067;-71
2023/07/14 03:52:46;;;;;;;3.10;1.08;;;15.30;99.90;;;14.88;100.00;97901.38;5048431;28;20049;-71
2023/07/14 03:55:13;;;;;;;2.78;0.93;;;15.30;99.90;;;14.94;100.00;97898.41;5047389;28;20088;-71
2023/07/14 03:57:41;;;;;;;2.25;0.80;;;15.40;99.90;;;15.07;100.00;97899.44;5043736;28;20143;-71
2023/07/14 04:00:27;;;;;;;4.55;1.10;;;15.50;99.90;;;15.10;100.00;97891.44;5047438;28;20059;-71
2023/07/14 04:02:56;;;;;;;3.78;0.90;;;15.60;99.90;;;15.15;100.00;97880.72;5045059;28;20056;-70
2023/07/14 04:05:23;;;;;;;2.00;0.90;;;15.70;99.90;;;15.24;100.00;97872.34;5046897;28;20045;-72
2023/07/14 04:07:51;;;;;;;2.50;1.30;;;15.80;99.90;;;15.40;100.00;97870.53;5048213;28;20049;-70
2023/07/14 04:10:18;;;;;;;3.00;0.90;;;15.90;99.90;;;15.37;100.00;97873.34;5044054;28;20044;-71
2023/07/14 04:12:49;;;;;;;4.38;1.05;;;15.90;99.90;;;15.33;100.00;97863.16;5029210;28;20060;-71
2023/07/14 04:15:21;;;;;;;3.22;1.00;;;15.90;99.90;;;15.42;100.00;97858.22;5026657;28;20505;-71
2023/07/14 04:17:49;;;;;;;4.70;1.20;;;15.90;99.90;;;15.47;100.00;97866.63;5047238;28;20056;-71
2023/07/14 04:20:16;;;;;;;6.20;1.23;;;16.00;99.90;;;15.42;100.00;97866.06;5042637;28;20455;-71
2023/07/14 04:22:43;;;;;;;3.67;1.10;;;16.10;99.90;;;15.29;100.00;97866.88;5044249;28;20080;-71
2023/07/14 04:25:11;;;;;;;7.18;1.10;;;16.10;99.90;;;15.31;100.00;97862.38;5046157;28;20049;-70
2023/07/14 04:27:38;;;;;;;2.15;0.93;;;16.00;99.90;;;15.24;100.00;97865.34;5045253;28;20056;-71
2023/07/14 04:30:08;;;;;;;2.53;0.93;;;15.90;99.90;;;15.26;100.00;97870.50;5043328;28;20179;-71
2023/07/14 04:32:36;;;;;;;3.30;1.13;;;15.90;99.90;;;15.19;100.00;97869.13;5043036;28;20049;-70
2023/07/14 04:35:04;;;;;;;3.47;1.30;;;15.90;99.90;;;15.13;100.00;97869.50;5042790;28;20463;-71
2023/07/14 04:37:31;;;;;;;3.55;0.93;;;15.90;99.90;;;15.33;100.00;97877.06;5041622;28;20413;-71
2023/07/14 04:39:59;;;;;;;4.45;1.30;;;15.90;99.90;;;15.45;100.00;97865.88;5043824;28;20098;-71
2023/07/14 04:42:26;;;;;;;4.00;1.13;;;16.00;99.90;;;15.56;100.00;97865.25;5046602;28;20041;-71
2023/07/14 04:44:54;;;;;;;4.03;1.10;;;16.20;99.90;;;15.65;100.00;97866.50;5038974;28;20040;-70
2023/07/14 04:47:21;;;;;;;3.95;1.05;;;16.30;99.90;;;15.92;100.00;97861.47;5043731;28;20049;-71
2023/07/14 04:49:48;;;;;;;4.38;1.30;;;16.40;99.90;;;15.89;100.00;97864.22;5044300;28;20084;-71
2023/07/14 04:52:15;;;;;;;3.78;0.98;;;16.50;99.90;;;16.14;100.00;97853.13;5044120;28;20049;-71
2023/07/14 04:54:43;;;;;;;5.30;1.00;;;16.60;99.90;;;16.08;100.00;97853.53;5044527;28;20065;-71
2023/07/14 04:57:10;;;;;;;3.42;0.98;;;16.60;99.90;;;16.23;100.00;97860.44;5044715;28;20128;-71
2023/07/14 04:59:38;;;;;;;5.38;1.10;;;16.70;99.90;;;16.20;100.00;97863.25;5044996;28;20099;-71
2023/07/14 05:02:05;;;;;;;6.63;1.23;;;16.80;99.90;;;16.02;100.00;97856.50;5056200;28;20086;-71
2023/07/14 05:04:38;;;;;;;3.42;1.30;;;16.80;99.90;;;16.33;100.00;97846.75;5043260;28;20138;-71
2023/07/14 05:07:25;;;;;;;3.42;1.40;;;16.90;99.90;;;16.47;100.00;97841.53;5043131;28;20048;-71
2023/07/14 05:09:52;;;;;;;4.97;1.13;;;17.00;99.90;;;16.47;100.00;97833.66;5039691;28;20045;-69
2023/07/14 05:12:19;;;;;;;6.00;2.00;;;17.00;99.90;;;16.47;100.00;97833.66;5022247;28;20445;-71
2023/07/14 05:14:46;;;;;;;6.47;1.80;;;16.90;99.90;;;16.22;100.00;97824.72;5045257;28;20053;-70
2023/07/14 05:17:13;;;;;;;8.05;1.45;;;16.80;99.90;;;16.06;100.00;97823.97;5046191;28;20405;-71
2023/07/14 05:19:41;;;;;;;4.63;2.30;;;16.70;99.90;;;16.02;100.00;97818.06;5044495;28;20044;-71
2023/07/14 05:22:08;;;;;;;8.18;2.20;;;16.80;99.90;;;16.16;100.00;97819.00;5039077;28;20048;-71
2023/07/14 05:24:35;;;;;;;4.60;2.03;;;16.80;99.90;;;16.34;100.00;97812.63;5045206;28;20107;-71
2023/07/14 05:27:02;;;;;;;2.85;1.35;;;16.80;99.90;;;16.50;100.00;97815.97;5045040;28;20532;-71
2023/07/14 05:29:30;;;;;;;4.43;1.15;;;16.90;99.90;;;16.51;100.00;97806.31;5047577;28;20469;-71
2023/07/14 05:31:58;;;;;;;5.15;1.27;;;16.90;99.90;;;16.52;100.00;97798.38;5044666;28;20505;-71
2023/07/14 05:34:25;;;;;;;6.25;1.60;;;16.80;99.90;;;16.41;100.00;97798.19;5044062;28;20052;-71
2023/07/14 05:36:52;;;;;;;2.80;1.40;;;16.90;99.90;;;16.52;100.00;97802.78;5044271;28;20107;-71
2023/07/14 05:39:20;;;;;;;3.67;1.35;;;16.90;99.90;;;16.54;100.00;97795.66;5037919;28;20303;-71
2023/07/14 05:41:47;;;;;;;4.93;1.15;;;16.90;99.90;;;16.68;100.00;97790.38;5035994;28;20053;-71
2023/07/14 05:44:15;;;;;;;3.33;1.10;;;17.10;99.90;;;16.78;100.00;97793.25;5048663;28;20161;-71
2023/07/14 05:46:42;;;;;;;3.85;1.40;;;17.20;99.90;;;16.79;100.00;97789.72;5044162;28;20527;-71
2023/07/14 05:49:09;;;;;;;5.72;1.23;;;17.40;99.90;;;17.01;100.00;97780.44;5043489;28;20056;-70
2023/07/14 05:51:36;;;;;;;3.10;1.02;;;17.40;99.90;;;17.09;100.00;97786.03;5042693;28;20479;-70
2023/07/14 05:54:05;;;;;;;4.60;1.13;;;17.60;99.90;;;17.22;100.00;97780.81;5037146;28;20505;-70
2023/07/14 05:56:31;;;;;;;2.95;0.93;;;17.70;99.90;;;17.44;100.00;97769.75;5040698;28;20049;-72
2023/07/14 05:58:59;;;;;;;5.95;1.10;;;17.90;99.90;;;17.54;100.00;97766.41;5028358;28;20052;-71
2023/07/14 06:01:26;;;;;;;4.50;1.20;;;18.00;99.90;;;17.78;100.00;97769.09;5042579;28;20053;-72
2023/07/14 06:03:53;;;;;;;3.70;1.10;;;18.10;99.90;;;17.94;100.00;97762.84;5042315;28;20532;-72
2023/07/14 06:06:20;;;;;;;3.47;1.20;;;18.20;99.90;;;18.26;100.00;97763.19;5043284;28;20076;-71
2023/07/14 06:08:49;;;;;;;6.78;1.05;;;18.40;99.90;;;18.51;100.00;97758.81;5043969;28;20131;-71
2023/07/14 06:11:16;;;;;;;4.18;1.17;;;18.60;99.90;;;18.58;100.00;97747.75;5036434;28;20045;-71
2023/07/14 06:13:44;;;;;;;4.90;1.13;;;18.80;99.90;;;18.97;100.00;97748.44;5041121;28;20057;-71
2023/07/14 06:16:11;;;;;;;4.32;1.00;;;19.00;99.90;;;19.04;100.00;97754.09;5041668;28;20076;-72
2023/07/14 06:18:39;;;;;;;3.15;0.85;;;19.10;99.90;;;19.25;100.00;97746.41;5040660;28;20077;-72
2023/07/14 06:21:08;;;;;;;6.35;1.20;;;19.40;99.90;;;19.34;100.00;97747.47;5042225;28;20522;-72
2023/07/14 06:23:35;;;;;;;4.35;0.93;;;19.60;99.90;;;19.43;100.00;97745.00;5042859;28;20049;-70
2023/07/14 06:26:02;;;;;;;4.45;0.90;;;19.70;99.90;;;19.78;100.00;97743.28;5036500;28;20114;-70
2023/07/14 06:28:29;;;;;;;3.03;0.88;;;19.80;99.90;;;20.23;100.00;97744.13;5042689;28;20140;-72
2023/07/14 06:31:01;;;;;;;2.92;1.10;;;20.00;99.90;;;20.22;100.00;97747.69;5041274;28;20110;-72
2023/07/14 06:33:28;;;;;;;;;;;20.30;99.90;;;20.10;100.00;97742.56;5043133;28;20060;-72
2023/07/14 06:35:57;;;;;;;2.50;0.88;;;20.40;99.90;;;20.34;100.00;97743.25;5039944;28;19925;-73
2023/07/14 06:38:25;;;;;;;6.82;0.88;;;20.50;99.90;;;20.41;100.00;97736.53;5043111;28;20619;-72
2023/07/14 06:41:04;;;;;;;4.90;0.93;;;20.70;99.90;;;20.41;100.00;97733.03;5042296;28;20063;-72
2023/07/14 06:43:35;;;;;;;3.33;0.90;;;20.90;99.90;;;20.79;100.00;97735.25;5042004;28;20049;-73
2023/07/14 06:46:02;;;;;;;3.85;1.13;;;21.00;99.90;;;20.95;100.00;97731.34;5044748;28;20511;-72
2023/07/14 06:48:29;;;;;;;5.13;1.00;;;21.10;99.90;;;21.07;100.00;97732.97;5036214;28;20553;-72
2023/07/14 06:50:57;;;;;;;5.20;0.80;;;21.30;99.90;;;21.07;100.00;97733.84;5044140;28;20053;-72
2023/07/14 06:53:25;;;;;;;4.90;0.75;;;21.30;99.90;;;21.32;100.00;97731.75;5041039;28;20135;-72
2023/07/14 06:55:52;;;;;;;3.13;0.93;;;21.40;99.90;;;21.38;100.00;97725.97;5045069;28;20061;-72
2023/07/14 06:58:35;;;;;;;4.90;0.77;;;21.60;99.90;;;21.64;100.00;97721.13;5037228;28;20074;-71
2023/07/14 07:01:03;;;;;;;4.68;1.20;;;21.90;99.90;;;21.46;100.00;97712.13;5042844;28;20052;-72
2023/07/14 07:03:30;;;;;;;4.93;1.08;;;21.90;99.90;;;21.69;100.00;97713.69;5040875;28;20527;-72
2023/07/14 07:05:57;;;;;;;6.07;0.80;;;22.00;99.90;;;21.90;100.00;97715.44;5043496;28;20069;-73
2023/07/14 07:08:25;;;;;;;4.30;0.93;;;22.10;99.90;;;22.02;100.00;97711.72;5042389;28;20457;-72
2023/07/14 07:10:52;;;;;;;6.15;0.90;;;22.30;99.90;;;22.16;100.00;97714.97;5042137;28;20055;-72
2023/07/14 07:13:19;;;;;;;3.70;1.15;;;22.50;99.90;;;21.90;100.00;97712.78;5039889;28;20072;-73
2023/07/14 07:15:47;;;;;;;4.13;1.10;;;22.60;99.90;;;22.09;100.00;97717.31;5036957;28;20056;-72
2023/07/14 07:18:26;;;;;;;12.27;1.30;;;22.60;99.90;;;22.15;100.00;97706.19;5042750;28;20076;-73
2023/07/14 07:20:55;;;;;;;5.88;1.27;;;22.60;99.90;;;22.61;100.00;97706.59;5037334;28;20072;-72
2023/07/14 07:23:22;;;;;;;4.50;0.60;;;22.80;99.90;;;22.40;100.00;97707.53;5056722;28;20045;-72
2023/07/14 07:25:53;;;;;;;3.20;0.90;;;22.90;99.90;;;23.01;100.00;97697.69;5041643;28;20045;-73
2023/07/14 07:28:21;;;;;;;5.63;0.80;;;23.00;99.90;;;22.74;100.00;97697.41;5041000;28;20104;-73
2023/07/14 07:30:49;;;;;;;3.97;1.10;;;23.20;99.90;;;22.38;100.00;97701.56;5039112;28;20057;-72
2023/07/14 07:33:16;;;;;;;9.80;1.05;;;23.20;99.90;;;22.27;100.00;97694.56;5041476;28;20677;-72
2023/07/14 07:35:44;;;;;;;3.60;0.90;;;23.00;99.90;;;22.32;100.00;97687.03;5039735;28;20045;-73
2023/07/14 07:38:12;;;;;;;5.38;1.15;;;23.00;99.90;;;22.70;100.00;97690.72;5041511;28;20513;-71
2023/07/14 07:40:44;;;;;;;5.22;1.13;;;23.00;99.90;;;22.64;100.00;97685.16;5041462;28;20053;-72
2023/07/14 07:43:11;;;;;;;4.10;0.80;;;23.10;99.90;;;23.26;100.00;97683.88;5041778;28;20084;-73
2023/07/14 07:45:39;;;;;;;5.07;1.00;;;23.30;99.90;;;23.28;100.00;97683.72;5039833;28;20646;-73
2023/07/14 07:48:07;;;;;;;2.28;0.70;;;23.50;99.90;;;23.04;100.00;97681.56;5039110;28;20108;-72
2023/07/14 07:50:34;;;;;;;3.10;0.73;;;23.60;99.90;;;22.78;100.00;97676.78;5039260;28;20628;-73
2023/07/14 07:53:01;;;;;;;2.63;0.57;;;23.50;99.90;;;23.63;100.00;97669.84;5021614;28;20056;-72
2023/07/14 07:55:28;;;;;;;4.65;0.60;;;23.70;99.90;;;23.98;100.00;97665.66;5041747;28;20106;-73
2023/07/14 07:57:55;;;;;;;2.95;0.70;;;24.00;99.90;;;23.93;100.00;97663.47;5042591;28;20141;-73
2023/07/14 08:00:22;;;;;;;3.20;0.70;;;24.10;99.90;;;23.35;100.00;97664.47;5038605;28;20411;-71
2023/07/14 08:02:50;;;;;;;3.33;0.70;;;23.90;99.90;;;22.91;100.00;97661.47;5042082;28;20489;-73
2023/07/14 08:05:18;;;;;;;3.50;0.88;;;23.80;99.90;;;23.03;100.00;97656.03;5043252;28;20067;-72
2023/07/14 08:07:45;;;;;;;3.65;0.88;;;23.70;99.90;;;23.50;100.00;97658.72;5043744;28;20045;-72
2023/07/14 08:10:12;;;;;;;5.50;0.93;;;23.80;99.90;;;23.92;100.00;97668.91;5042562;28;20033;-73
2023/07/14 08:12:39;;;;;;;2.42;0.75;;;24.10;99.90;;;23.66;100.00;97655.47;5041682;28;20132;-73
2023/07/14 08:15:09;;;;;;;2.85;0.80;;;24.30;99.10;;;24.34;100.00;97652.47;5045356;28;20095;-73
2023/07/14 08:17:54;;;;;;;3.55;0.52;;;24.50;99.00;;;24.87;100.00;97643.69;5043442;28;20053;-73
2023/07/14 08:20:21;;;;;;;3.85;0.77;;;24.70;98.50;;;24.72;100.00;97647.88;5045809;28;20505;-73
2023/07/14 08:22:49;;;;;;;4.82;0.90;;;24.70;98.50;;;24.54;100.00;97650.53;5041892;28;20080;-71
2023/07/14 08:25:16;;;;;;;4.38;0.80;;;24.60;97.40;;;24.16;100.00;97647.97;5042725;28;20052;-73
2023/07/14 08:27:45;;;;;;;3.70;0.80;;;24.70;96.90;;;24.16;100.00;97647.16;5045608;28;20421;-73
2023/07/14 08:30:12;;;;;;;3.28;0.70;;;24.40;96.40;;;24.78;100.00;97648.09;5044085;28;20041;-73
2023/07/14 08:32:39;;;;;;;2.75;0.80;;;24.70;98.20;;;24.95;100.00;97642.91;5033704;28;20569;-73
2023/07/14 08:35:07;;;;;;;2.30;0.68;;;25.10;97.50;;;24.85;100.00;97645.66;5040850;28;20049;-73
2023/07/14 08:37:34;;;;;;;4.00;0.85;;;25.30;97.30;;;25.10;100.00;97645.84;5040176;28;20313;-72
2023/07/14 08:40:01;;;;;;;3.53;0.93;;;25.50;97.10;;;24.95;100.00;97649.09;5043158;28;20386;-73
2023/07/14 08:42:38;;;;;;;2.83;0.60;;;25.50;96.20;;;25.66;100.00;97645.41;5042727;28;20103;-73
2023/07/14 08:45:39;;;;;;;3.40;0.70;;;25.70;97.60;;;25.12;100.00;97638.56;5046196;28;20073;-73
2023/07/14 08:48:25;;;;;;;4.07;0.90;;;25.40;96.00;;;24.99;100.00;97645.09;5023739;28;20101;-71
2023/07/14 08:50:57;;;;;;;4.95;1.05;;;25.20;96.00;;;24.43;100.00;97649.75;5028306;28;20040;-72
2023/07/14 08:53:29;;;;;;;3.65;0.60;;;24.80;95.50;;;25.28;100.00;97638.69;5040959;28;20049;-72
2023/07/14 08:56:04;;;;;;;6.40;0.80;;;25.20;96.50;;;25.75;100.00;97638.28;5044314;28;20056;-73
2023/07/14 08:58:36;;;;;;;3.88;0.80;;;25.70;95.70;;;25.89;100.00;97634.22;5044904;28;20052;-72
2023/07/14 09:01:34;;;;;;;4.70;0.90;;;26.10;95.80;;;24.97;100.00;97631.16;5043816;28;20426;-73
2023/07/14 09:04:32;;;;;;;2.72;0.77;;;26.00;94.00;;;25.38;100.00;97627.97;5042095;28;20053;-73
2023/07/14 09:07:00;;;;;;;4.38;0.90;;;26.10;93.90;;;25.45;100.00;97629.84;5041781;28;20065;-73
2023/07/14 09:09:36;;;;;;;3.50;0.80;;;25.90;93.70;;;24.84;100.00;97628.91;5043053;28;20132;-72
2023/07/14 09:12:31;;;;;;;6.05;0.80;;;25.80;94.20;;;24.52;100.00;97633.91;5041370;28;20093;-73
2023/07/14 09:15:06;;;;;;;4.95;0.75;;;25.50;94.50;;;24.33;100.00;97640.19;5042639;28;20140;-73
2023/07/14 09:18:02;;;;;;;3.92;0.60;;;25.40;93.20;;;24.73;100.00;97626.50;5024818;28;20132;-73
2023/07/14 09:20:43;;;;;;;3.58;0.95;;;25.10;93.40;;;24.96;100.00;97626.84;5043890;28;20124;-73
2023/07/14 09:23:56;;;;;;;3.95;0.93;;;25.00;93.40;;;24.60;100.00;97623.41;5026511;28;20053;-73
2023/07/14 09:26:26;;;;;;;3.53;1.00;;;24.80;93.20;;;24.24;100.00;97628.66;5038935;28;20071;-74
2023/07/14 09:28:57;;;;;;;3.20;1.00;;;24.60;94.00;;;24.56;100.00;97620.22;5039989;28;20060;-73
2023/07/14 09:32:00;;;;;;;3.60;1.02;;;25.00;94.00;;;25.93;100.00;97614.28;5042268;28;20044;-73
2023/07/14 09:34:37;;;;;;;4.25;0.60;;;26.10;94.00;;;26.70;100.00;97604.28;5010248;28;20041;-73
2023/07/14 09:37:22;;;;;;;3.63;0.80;;;26.90;93.80;;;26.68;100.00;97600.94;5041789;28;20064;-74
2023/07/14 09:40:21;;;;;;;5.47;0.77;;;27.60;91.60;;;26.97;100.00;97606.78;5020597;28;20048;-73
2023/07/14 09:42:59;;;;;;;6.18;0.88;;;28.20;91.10;;;28.51;100.00;97593.88;5040848;28;20155;-73
2023/07/14 09:45:33;;;;;;;3.40;0.80;;;29.00;90.40;;;29.54;90.53;97599.59;5026329;28;20085;-73
2023/07/14 09:48:28;;;;;;;3.88;0.80;;;30.00;87.20;;;29.88;93.65;97592.84;5024206;28;20202;-73
2023/07/14 09:51:05;;;;;;;3.88;0.55;;;30.40;87.60;;;29.90;89.73;97597.00;5056401;28;20053;-72
2023/07/14 09:53:36;;;;;;;2.85;0.60;;;30.80;84.90;;;28.80;92.53;97596.81;5037527;28;20529;-73
2023/07/14 09:56:10;;;;;;;4.97;0.73;;;30.30;84.20;;;29.67;88.59;97591.72;5039452;28;20048;-73
2023/07/14 09:58:37;;;;;;;4.32;0.68;;;30.60;83.80;;;29.01;89.18;97588.09;5033681;28;20049;-74
2023/07/14 10:01:14;;;;;;;3.55;0.63;;;30.20;82.00;;;28.48;92.63;97585.38;5038957;28;20120;-73
2023/07/14 10:03:54;;;;;;;4.47;0.98;;;29.70;83.00;;;26.40;96.93;97592.44;5039855;28;20040;-73
2023/07/14 10:06:26;;;;;;;6.13;1.00;;;29.00;82.60;;;25.84;100.00;97591.28;5034554;28;20052;-74
2023/07/14 10:08:56;;;;;;;4.57;0.63;;;28.10;84.40;;;26.40;100.00;97583.63;5039122;28;20084;-72
2023/07/14 10:11:40;;;;;;;3.63;0.70;;;27.20;86.60;;;26.17;100.00;97597.56;5031102;28;20434;-73
2023/07/14 10:14:19;;;;;;;5.10;0.85;;;27.00;86.90;;;26.50;100.00;97590.47;5040181;28;20140;-72
2023/07/14 10:16:48;;;;;;;4.30;0.82;;;27.00;89.30;;;26.66;100.00;97594.13;5032456;28;20041;-72
2023/07/14 10:19:18;;;;;;;2.40;0.73;;;;;;;26.10;100.00;97598.38;5042863;28;20767;-71
2023/07/14 10:22:05;;;;;;;3.50;0.63;;;26.90;83.80;;;25.60;100.00;97592.88;5040008;28;20085;-71
2023/07/14 10:24:35;;;;;;;3.20;0.82;;;26.60;85.60;;;25.93;100.00;97590.34;5052710;28;20048;-72
2023/07/14 10:27:15;;;;;;;4.70;0.60;;;26.40;85.30;;;26.32;100.00;97591.59;5037395;28;20114;-74
2023/07/14 10:30:09;;;;;;;3.75;1.00;;;26.40;87.80;;;27.65;98.80;97587.63;5041026;28;20513;-73
2023/07/14 10:32:49;;;;;;;2.03;0.60;;;26.60;86.80;;;28.08;95.00;97571.28;5032433;28;20053;-71